Burnettsville, Indiana
Current Conditions -  °F | °C
As of 8:35 AM on Friday 19 Dec 2014 (Local Time) from KMCX Reporting Station
Overcast Overcast  
Wind Chill: 26°   Ceiling: 2200
Heat Index: 26°   Visibility: 7mi
Dew Point: 23°   Wind: 3mph
Humidity: 89%   Direction: 310°NW
Pressure: 30.27"   Gusts: NA
Location:  40.76°N, 86.59°W
Report Text: KMCX 191335Z AUTO 31003KT 7SM OVC022 M03/M05 A3027 RMK AO2 T10351050
Loading
Personal Weather Stations






























Interactive Weather Map New forecast layout! Learn more

10-Day Weather Forecast

Advertisements
Track Severe Weather on mobile